sensor_id;sensor_type;location;lat;lon;timestamp;P1;durP1;ratioP1;P2;durP2;ratioP2
1004;SDS011;491;53.480;10.174;2023-08-20T00:00:07;8.10;;;4.77;;
1004;SDS011;491;53.480;10.174;2023-08-20T00:02:33;10.60;;;6.33;;
1004;SDS011;491;53.480;10.174;2023-08-20T00:05:01;7.73;;;5.30;;
1004;SDS011;491;53.480;10.174;2023-08-20T00:07:29;8.13;;;4.87;;
1004;SDS011;491;53.480;10.174;2023-08-20T00:09:55;9.17;;;5.20;;
1004;SDS011;491;53.480;10.174;2023-08-20T00:12:21;9.57;;;4.97;;
1004;SDS011;491;53.480;10.174;2023-08-20T00:15:02;13.37;;;5.90;;
1004;SDS011;491;53.480;10.174;2023-08-20T00:17:35;11.60;;;4.80;;
1004;SDS011;491;53.480;10.174;2023-08-20T00:20:02;8.00;;;4.73;;
1004;SDS011;491;53.480;10.174;2023-08-20T00:22:38;8.33;;;4.07;;
1004;SDS011;491;53.480;10.174;2023-08-20T00:25:04;10.50;;;4.80;;
1004;SDS011;491;53.480;10.174;2023-08-20T00:27:31;10.30;;;5.57;;
1004;SDS011;491;53.480;10.174;2023-08-20T00:29:57;8.30;;;4.90;;
1004;SDS011;491;53.480;10.174;2023-08-20T00:32:23;10.70;;;5.67;;
1004;SDS011;491;53.480;10.174;2023-08-20T00:34:59;7.67;;;4.50;;
1004;SDS011;491;53.480;10.174;2023-08-20T00:37:25;11.80;;;5.60;;
1004;SDS011;491;53.480;10.174;2023-08-20T00:39:51;9.60;;;5.13;;
1004;SDS011;491;53.480;10.174;2023-08-20T00:42:17;11.80;;;5.50;;
1004;SDS011;491;53.480;10.174;2023-08-20T00:44:43;7.50;;;5.00;;
1004;SDS011;491;53.480;10.174;2023-08-20T00:47:14;11.00;;;4.90;;
1004;SDS011;491;53.480;10.174;2023-08-20T00:49:40;8.93;;;5.33;;
1004;SDS011;491;53.480;10.174;2023-08-20T00:52:10;12.17;;;5.07;;
1004;SDS011;491;53.480;10.174;2023-08-20T00:54:37;16.63;;;5.57;;
1004;SDS011;491;53.480;10.174;2023-08-20T00:57:04;12.23;;;6.33;;
1004;SDS011;491;53.480;10.174;2023-08-20T00:59:32;8.80;;;5.53;;
1004;SDS011;491;53.480;10.174;2023-08-20T01:01:58;8.33;;;4.87;;
1004;SDS011;491;53.480;10.174;2023-08-20T01:04:24;10.67;;;6.00;;
1004;SDS011;491;53.480;10.174;2023-08-20T01:11:52;11.90;;;6.97;;
1004;SDS011;491;53.480;10.174;2023-08-20T01:14:20;10.90;;;5.83;;
1004;SDS011;491;53.480;10.174;2023-08-20T01:16:49;8.30;;;5.37;;
1004;SDS011;491;53.480;10.174;2023-08-20T01:19:19;10.80;;;6.03;;
1004;SDS011;491;53.480;10.174;2023-08-20T01:21:47;9.50;;;4.60;;
1004;SDS011;491;53.480;10.174;2023-08-20T01:27:03;12.03;;;5.73;;
1004;SDS011;491;53.480;10.174;2023-08-20T01:29:31;8.90;;;5.90;;
1004;SDS011;491;53.480;10.174;2023-08-20T01:31:58;8.67;;;5.33;;
1004;SDS011;491;53.480;10.174;2023-08-20T01:34:24;8.77;;;5.40;;
1004;SDS011;491;53.480;10.174;2023-08-20T01:36:50;7.40;;;4.80;;
1004;SDS011;491;53.480;10.174;2023-08-20T01:39:16;6.03;;;4.47;;
1004;SDS011;491;53.480;10.174;2023-08-20T01:41:43;8.50;;;4.87;;
1004;SDS011;491;53.480;10.174;2023-08-20T01:44:09;6.83;;;4.50;;
1004;SDS011;491;53.480;10.174;2023-08-20T01:46:35;9.57;;;4.83;;
1004;SDS011;491;53.480;10.174;2023-08-20T01:49:01;9.80;;;4.60;;
1004;SDS011;491;53.480;10.174;2023-08-20T01:51:28;9.00;;;5.57;;
1004;SDS011;491;53.480;10.174;2023-08-20T01:53:54;9.50;;;6.10;;
1004;SDS011;491;53.480;10.174;2023-08-20T01:56:20;11.53;;;5.90;;
1004;SDS011;491;53.480;10.174;2023-08-20T01:58:45;6.13;;;5.53;;
1004;SDS011;491;53.480;10.174;2023-08-20T02:01:11;7.10;;;5.17;;
1004;SDS011;491;53.480;10.174;2023-08-20T02:03:37;10.73;;;6.67;;
1004;SDS011;491;53.480;10.174;2023-08-20T02:06:03;6.40;;;5.67;;
1004;SDS011;491;53.480;10.174;2023-08-20T02:08:29;12.27;;;6.33;;
1004;SDS011;491;53.480;10.174;2023-08-20T02:11:02;10.10;;;5.90;;
1004;SDS011;491;53.480;10.174;2023-08-20T02:13:28;10.10;;;6.40;;
1004;SDS011;491;53.480;10.174;2023-08-20T02:16:03;6.80;;;5.07;;
1004;SDS011;491;53.480;10.174;2023-08-20T02:18:30;11.13;;;5.97;;
1004;SDS011;491;53.480;10.174;2023-08-20T02:20:56;11.27;;;6.73;;
1004;SDS011;491;53.480;10.174;2023-08-20T02:23:22;8.10;;;5.60;;
1004;SDS011;491;53.480;10.174;2023-08-20T02:25:48;8.37;;;5.50;;
1004;SDS011;491;53.480;10.174;2023-08-20T02:28:14;8.10;;;6.80;;
1004;SDS011;491;53.480;10.174;2023-08-20T02:30:41;10.23;;;6.87;;
1004;SDS011;491;53.480;10.174;2023-08-20T02:33:07;10.97;;;6.83;;
1004;SDS011;491;53.480;10.174;2023-08-20T02:35:33;9.73;;;6.00;;
1004;SDS011;491;53.480;10.174;2023-08-20T02:37:58;9.27;;;6.80;;
1004;SDS011;491;53.480;10.174;2023-08-20T02:40:24;10.53;;;6.70;;
1004;SDS011;491;53.480;10.174;2023-08-20T02:42:50;10.50;;;7.60;;
1004;SDS011;491;53.480;10.174;2023-08-20T02:45:16;10.30;;;7.77;;
1004;SDS011;491;53.480;10.174;2023-08-20T02:47:42;11.43;;;6.80;;
1004;SDS011;491;53.480;10.174;2023-08-20T02:50:08;10.30;;;7.87;;
1004;SDS011;491;53.480;10.174;2023-08-20T02:52:34;12.30;;;7.43;;
1004;SDS011;491;53.480;10.174;2023-08-20T02:55:00;9.47;;;7.10;;
1004;SDS011;491;53.480;10.174;2023-08-20T02:57:26;10.57;;;7.50;;
1004;SDS011;491;53.480;10.174;2023-08-20T02:59:52;12.87;;;7.83;;
1004;SDS011;491;53.480;10.174;2023-08-20T03:02:18;12.50;;;7.13;;
1004;SDS011;491;53.480;10.174;2023-08-20T03:04:44;8.87;;;7.97;;
1004;SDS011;491;53.480;10.174;2023-08-20T03:07:10;11.43;;;9.40;;
1004;SDS011;491;53.480;10.174;2023-08-20T03:09:36;10.00;;;8.10;;
1004;SDS011;491;53.480;10.174;2023-08-20T03:12:02;10.27;;;7.73;;
1004;SDS011;491;53.480;10.174;2023-08-20T03:14:28;11.43;;;7.73;;
1004;SDS011;491;53.480;10.174;2023-08-20T03:16:54;9.83;;;7.60;;
1004;SDS011;491;53.480;10.174;2023-08-20T03:19:19;11.57;;;7.07;;
1004;SDS011;491;53.480;10.174;2023-08-20T03:21:45;12.10;;;8.03;;
1004;SDS011;491;53.480;10.174;2023-08-20T03:24:14;9.53;;;6.80;;
1004;SDS011;491;53.480;10.174;2023-08-20T03:26:40;10.97;;;8.50;;
1004;SDS011;491;53.480;10.174;2023-08-20T03:29:06;9.27;;;6.73;;
1004;SDS011;491;53.480;10.174;2023-08-20T03:31:32;11.30;;;8.57;;
1004;SDS011;491;53.480;10.174;2023-08-20T03:33:58;10.00;;;6.17;;
1004;SDS011;491;53.480;10.174;2023-08-20T03:36:24;9.33;;;5.97;;
1004;SDS011;491;53.480;10.174;2023-08-20T03:38:50;10.70;;;5.90;;
1004;SDS011;491;53.480;10.174;2023-08-20T03:41:15;10.67;;;6.40;;
1004;SDS011;491;53.480;10.174;2023-08-20T03:43:42;10.90;;;7.87;;
1004;SDS011;491;53.480;10.174;2023-08-20T03:46:08;15.50;;;9.17;;
1004;SDS011;491;53.480;10.174;2023-08-20T03:48:34;18.27;;;8.20;;
1004;SDS011;491;53.480;10.174;2023-08-20T03:50:59;58.53;;;11.63;;
1004;SDS011;491;53.480;10.174;2023-08-20T03:53:25;34.53;;;9.63;;
1004;SDS011;491;53.480;10.174;2023-08-20T03:55:51;31.83;;;9.00;;
1004;SDS011;491;53.480;10.174;2023-08-20T03:58:17;32.77;;;7.83;;
1004;SDS011;491;53.480;10.174;2023-08-20T04:00:43;12.17;;;5.40;;
1004;SDS011;491;53.480;10.174;2023-08-20T04:03:09;27.60;;;5.73;;
1004;SDS011;491;53.480;10.174;2023-08-20T04:05:38;16.17;;;5.47;;
1004;SDS011;491;53.480;10.174;2023-08-20T04:08:05;23.83;;;6.20;;
1004;SDS011;491;53.480;10.174;2023-08-20T04:10:31;20.33;;;5.43;;
1004;SDS011;491;53.480;10.174;2023-08-20T04:12:58;18.97;;;5.50;;
1004;SDS011;491;53.480;10.174;2023-08-20T04:15:24;14.93;;;5.23;;
1004;SDS011;491;53.480;10.174;2023-08-20T04:17:50;13.10;;;5.17;;
1004;SDS011;491;53.480;10.174;2023-08-20T04:20:16;9.03;;;5.10;;
1004;SDS011;491;53.480;10.174;2023-08-20T04:22:42;7.30;;;4.90;;
1004;SDS011;491;53.480;10.174;2023-08-20T04:25:08;11.83;;;5.70;;
1004;SDS011;491;53.480;10.174;2023-08-20T04:27:33;29.60;;;6.90;;
1004;SDS011;491;53.480;10.174;2023-08-20T04:29:59;12.13;;;6.23;;
1004;SDS011;491;53.480;10.174;2023-08-20T04:32:25;26.33;;;8.03;;
1004;SDS011;491;53.480;10.174;2023-08-20T04:34:51;33.30;;;7.40;;
1004;SDS011;491;53.480;10.174;2023-08-20T04:37:19;18.93;;;5.63;;
1004;SDS011;491;53.480;10.174;2023-08-20T04:39:45;19.17;;;5.30;;
1004;SDS011;491;53.480;10.174;2023-08-20T04:42:11;13.60;;;4.90;;
1004;SDS011;491;53.480;10.174;2023-08-20T04:44:37;19.77;;;6.53;;
1004;SDS011;491;53.480;10.174;2023-08-20T04:47:03;11.27;;;5.40;;
1004;SDS011;491;53.480;10.174;2023-08-20T04:49:28;33.60;;;7.10;;
1004;SDS011;491;53.480;10.174;2023-08-20T04:51:55;7.57;;;4.37;;
1004;SDS011;491;53.480;10.174;2023-08-20T04:54:21;17.53;;;4.50;;
1004;SDS011;491;53.480;10.174;2023-08-20T04:56:46;15.50;;;4.90;;
1004;SDS011;491;53.480;10.174;2023-08-20T04:59:15;21.90;;;4.03;;
1004;SDS011;491;53.480;10.174;2023-08-20T05:01:41;11.03;;;4.30;;
1004;SDS011;491;53.480;10.174;2023-08-20T05:04:07;8.17;;;3.93;;
1004;SDS011;491;53.480;10.174;2023-08-20T05:06:33;7.40;;;3.30;;
1004;SDS011;491;53.480;10.174;2023-08-20T05:08:59;15.20;;;3.30;;
1004;SDS011;491;53.480;10.174;2023-08-20T05:11:25;18.47;;;4.27;;
1004;SDS011;491;53.480;10.174;2023-08-20T05:13:51;33.33;;;6.33;;
1004;SDS011;491;53.480;10.174;2023-08-20T05:16:17;14.57;;;3.67;;
1004;SDS011;491;53.480;10.174;2023-08-20T05:18:43;45.13;;;6.80;;
1004;SDS011;491;53.480;10.174;2023-08-20T05:21:09;34.73;;;5.30;;
1004;SDS011;491;53.480;10.174;2023-08-20T05:23:38;28.33;;;4.40;;
1004;SDS011;491;53.480;10.174;2023-08-20T05:26:04;19.10;;;4.43;;
1004;SDS011;491;53.480;10.174;2023-08-20T05:28:30;38.53;;;4.57;;
1004;SDS011;491;53.480;10.174;2023-08-20T05:30:56;25.03;;;4.40;;
1004;SDS011;491;53.480;10.174;2023-08-20T05:33:23;21.53;;;5.23;;
1004;SDS011;491;53.480;10.174;2023-08-20T05:35:49;25.60;;;6.07;;
1004;SDS011;491;53.480;10.174;2023-08-20T05:38:15;42.27;;;8.20;;
1004;SDS011;491;53.480;10.174;2023-08-20T05:40:41;29.10;;;7.00;;
1004;SDS011;491;53.480;10.174;2023-08-20T05:43:07;53.30;;;7.67;;
1004;SDS011;491;53.480;10.174;2023-08-20T05:45:33;23.40;;;6.47;;
1004;SDS011;491;53.480;10.174;2023-08-20T05:47:59;21.37;;;5.47;;
1004;SDS011;491;53.480;10.174;2023-08-20T05:50:24;32.03;;;6.17;;
1004;SDS011;491;53.480;10.174;2023-08-20T05:52:51;26.93;;;6.00;;
1004;SDS011;491;53.480;10.174;2023-08-20T05:55:17;16.83;;;5.17;;
1004;SDS011;491;53.480;10.174;2023-08-20T05:57:43;19.43;;;5.93;;
1004;SDS011;491;53.480;10.174;2023-08-20T06:00:09;17.77;;;5.50;;
1004;SDS011;491;53.480;10.174;2023-08-20T06:02:35;12.80;;;4.77;;
1004;SDS011;491;53.480;10.174;2023-08-20T06:05:01;14.07;;;5.07;;
1004;SDS011;491;53.480;10.174;2023-08-20T06:07:30;19.20;;;5.20;;
1004;SDS011;491;53.480;10.174;2023-08-20T06:09:56;9.77;;;5.37;;
1004;SDS011;491;53.480;10.174;2023-08-20T06:12:23;21.47;;;5.47;;
1004;SDS011;491;53.480;10.174;2023-08-20T06:14:49;26.03;;;6.27;;
1004;SDS011;491;53.480;10.174;2023-08-20T06:17:15;10.30;;;5.13;;
1004;SDS011;491;53.480;10.174;2023-08-20T06:19:41;33.10;;;8.03;;
1004;SDS011;491;53.480;10.174;2023-08-20T06:22:07;17.50;;;6.60;;
1004;SDS011;491;53.480;10.174;2023-08-20T06:24:33;36.73;;;8.63;;
1004;SDS011;491;53.480;10.174;2023-08-20T06:26:59;13.80;;;6.30;;
1004;SDS011;491;53.480;10.174;2023-08-20T06:29:25;14.30;;;6.57;;
1004;SDS011;491;53.480;10.174;2023-08-20T06:31:51;14.67;;;6.73;;
1004;SDS011;491;53.480;10.174;2023-08-20T06:34:17;38.87;;;8.73;;
1004;SDS011;491;53.480;10.174;2023-08-20T06:36:42;21.40;;;7.23;;
1004;SDS011;491;53.480;10.174;2023-08-20T06:39:08;27.87;;;7.37;;
1004;SDS011;491;53.480;10.174;2023-08-20T06:41:35;17.17;;;7.50;;
1004;SDS011;491;53.480;10.174;2023-08-20T06:44:01;9.00;;;7.03;;
1004;SDS011;491;53.480;10.174;2023-08-20T06:46:27;13.07;;;8.17;;
1004;SDS011;491;53.480;10.174;2023-08-20T06:48:53;9.50;;;7.30;;
1004;SDS011;491;53.480;10.174;2023-08-20T06:51:19;9.23;;;8.33;;
1004;SDS011;491;53.480;10.174;2023-08-20T06:53:46;18.23;;;9.10;;
1004;SDS011;491;53.480;10.174;2023-08-20T06:56:12;25.07;;;10.20;;
1004;SDS011;491;53.480;10.174;2023-08-20T06:58:38;21.77;;;10.70;;
1004;SDS011;491;53.480;10.174;2023-08-20T07:01:05;16.03;;;9.13;;
1004;SDS011;491;53.480;10.174;2023-08-20T07:03:37;23.07;;;9.37;;
1004;SDS011;491;53.480;10.174;2023-08-20T07:06:03;27.17;;;12.37;;
1004;SDS011;491;53.480;10.174;2023-08-20T07:08:30;14.87;;;13.20;;
1004;SDS011;491;53.480;10.174;2023-08-20T07:11:08;16.30;;;12.47;;
1004;SDS011;491;53.480;10.174;2023-08-20T07:13:34;13.03;;;10.17;;
1004;SDS011;491;53.480;10.174;2023-08-20T07:16:00;14.23;;;11.83;;
1004;SDS011;491;53.480;10.174;2023-08-20T07:18:26;15.17;;;10.90;;
1004;SDS011;491;53.480;10.174;2023-08-20T07:20:52;12.60;;;11.00;;
1004;SDS011;491;53.480;10.174;2023-08-20T07:23:18;15.40;;;11.53;;
1004;SDS011;491;53.480;10.174;2023-08-20T07:25:44;17.27;;;12.03;;
1004;SDS011;491;53.480;10.174;2023-08-20T07:28:10;17.43;;;11.50;;
1004;SDS011;491;53.480;10.174;2023-08-20T07:30:36;14.13;;;10.57;;
1004;SDS011;491;53.480;10.174;2023-08-20T07:33:02;12.40;;;10.97;;
1004;SDS011;491;53.480;10.174;2023-08-20T07:35:29;12.10;;;10.90;;
1004;SDS011;491;53.480;10.174;2023-08-20T07:37:58;13.30;;;10.33;;
1004;SDS011;491;53.480;10.174;2023-08-20T07:40:24;13.77;;;10.67;;
1004;SDS011;491;53.480;10.174;2023-08-20T07:42:50;10.80;;;9.57;;
1004;SDS011;491;53.480;10.174;2023-08-20T07:45:16;15.37;;;8.67;;
1004;SDS011;491;53.480;10.174;2023-08-20T07:47:42;10.13;;;7.10;;
1004;SDS011;491;53.480;10.174;2023-08-20T07:50:08;10.80;;;8.53;;
1004;SDS011;491;53.480;10.174;2023-08-20T07:52:34;8.33;;;7.17;;
1004;SDS011;491;53.480;10.174;2023-08-20T07:55:00;9.27;;;6.80;;
1004;SDS011;491;53.480;10.174;2023-08-20T07:57:26;8.40;;;6.67;;
1004;SDS011;491;53.480;10.174;2023-08-20T07:59:52;8.00;;;7.20;;
1004;SDS011;491;53.480;10.174;2023-08-20T08:02:18;8.30;;;6.63;;
1004;SDS011;491;53.480;10.174;2023-08-20T08:04:44;6.97;;;5.70;;
1004;SDS011;491;53.480;10.174;2023-08-20T08:07:10;6.50;;;5.90;;
1004;SDS011;491;53.480;10.174;2023-08-20T08:09:36;8.00;;;5.33;;
1004;SDS011;491;53.480;10.174;2023-08-20T08:12:02;5.53;;;5.00;;
1004;SDS011;491;53.480;10.174;2023-08-20T08:14:28;7.40;;;5.43;;
1004;SDS011;491;53.480;10.174;2023-08-20T08:16:54;6.90;;;5.97;;
1004;SDS011;491;53.480;10.174;2023-08-20T08:19:20;7.50;;;4.90;;
1004;SDS011;491;53.480;10.174;2023-08-20T08:21:46;6.60;;;5.13;;
1004;SDS011;491;53.480;10.174;2023-08-20T08:24:13;7.33;;;4.80;;
1004;SDS011;491;53.480;10.174;2023-08-20T08:26:39;5.83;;;4.77;;
1004;SDS011;491;53.480;10.174;2023-08-20T08:29:06;9.50;;;4.83;;
1004;SDS011;491;53.480;10.174;2023-08-20T08:31:35;4.23;;;3.47;;
1004;SDS011;491;53.480;10.174;2023-08-20T08:34:04;4.43;;;3.10;;
1004;SDS011;491;53.480;10.174;2023-08-20T08:36:29;4.80;;;4.00;;
1004;SDS011;491;53.480;10.174;2023-08-20T08:38:55;6.50;;;3.83;;
1004;SDS011;491;53.480;10.174;2023-08-20T08:41:22;5.90;;;3.80;;
1004;SDS011;491;53.480;10.174;2023-08-20T08:43:51;5.47;;;4.33;;
1004;SDS011;491;53.480;10.174;2023-08-20T08:46:17;5.37;;;4.57;;
1004;SDS011;491;53.480;10.174;2023-08-20T08:48:45;4.67;;;4.10;;
1004;SDS011;491;53.480;10.174;2023-08-20T08:51:13;5.30;;;3.60;;
1004;SDS011;491;53.480;10.174;2023-08-20T08:53:42;4.10;;;2.97;;
1004;SDS011;491;53.480;10.174;2023-08-20T08:56:10;5.80;;;2.90;;
1004;SDS011;491;53.480;10.174;2023-08-20T08:58:36;5.60;;;3.10;;
1004;SDS011;491;53.480;10.174;2023-08-20T09:01:01;4.40;;;2.70;;
1004;SDS011;491;53.480;10.174;2023-08-20T09:03:28;4.87;;;2.97;;
1004;SDS011;491;53.480;10.174;2023-08-20T09:06:07;6.20;;;2.57;;
1004;SDS011;491;53.480;10.174;2023-08-20T09:08:33;3.60;;;2.33;;
1004;SDS011;491;53.480;10.174;2023-08-20T09:11:00;4.80;;;2.30;;
1004;SDS011;491;53.480;10.174;2023-08-20T09:13:36;5.40;;;2.47;;
1004;SDS011;491;53.480;10.174;2023-08-20T09:16:03;4.03;;;2.23;;
1004;SDS011;491;53.480;10.174;2023-08-20T09:18:29;4.63;;;1.53;;
1004;SDS011;491;53.480;10.174;2023-08-20T09:20:56;3.97;;;1.97;;
1004;SDS011;491;53.480;10.174;2023-08-20T09:23:22;3.00;;;1.30;;
1004;SDS011;491;53.480;10.174;2023-08-20T09:25:48;4.10;;;1.80;;
1004;SDS011;491;53.480;10.174;2023-08-20T09:28:14;3.83;;;1.60;;
1004;SDS011;491;53.480;10.174;2023-08-20T09:30:41;3.43;;;1.70;;
1004;SDS011;491;53.480;10.174;2023-08-20T09:33:19;2.37;;;1.50;;
1004;SDS011;491;53.480;10.174;2023-08-20T09:35:48;2.20;;;1.40;;
1004;SDS011;491;53.480;10.174;2023-08-20T09:38:15;3.03;;;1.60;;
1004;SDS011;491;53.480;10.174;2023-08-20T09:40:42;3.53;;;1.73;;
1004;SDS011;491;53.480;10.174;2023-08-20T09:43:07;3.50;;;1.20;;
1004;SDS011;491;53.480;10.174;2023-08-20T09:45:34;4.60;;;1.07;;
1004;SDS011;491;53.480;10.174;2023-08-20T09:48:02;4.73;;;1.80;;
1004;SDS011;491;53.480;10.174;2023-08-20T09:50:34;3.53;;;1.10;;
1004;SDS011;491;53.480;10.174;2023-08-20T09:53:07;3.70;;;1.43;;
1004;SDS011;491;53.480;10.174;2023-08-20T09:55:38;2.23;;;1.30;;
1004;SDS011;491;53.480;10.174;2023-08-20T09:58:05;3.90;;;1.57;;
1004;SDS011;491;53.480;10.174;2023-08-20T10:00:31;4.30;;;1.93;;
1004;SDS011;491;53.480;10.174;2023-08-20T10:02:57;2.70;;;1.40;;
1004;SDS011;491;53.480;10.174;2023-08-20T10:05:24;4.33;;;1.57;;
1004;SDS011;491;53.480;10.174;2023-08-20T10:07:50;5.10;;;1.37;;
1004;SDS011;491;53.480;10.174;2023-08-20T10:10:17;4.90;;;1.63;;
1004;SDS011;491;53.480;10.174;2023-08-20T10:12:43;5.10;;;1.60;;
1004;SDS011;491;53.480;10.174;2023-08-20T10:15:10;4.67;;;2.13;;
1004;SDS011;491;53.480;10.174;2023-08-20T10:17:38;3.63;;;1.40;;
1004;SDS011;491;53.480;10.174;2023-08-20T10:20:04;4.00;;;1.60;;
1004;SDS011;491;53.480;10.174;2023-08-20T10:22:34;4.67;;;1.33;;
1004;SDS011;491;53.480;10.174;2023-08-20T10:25:01;7.00;;;1.50;;
1004;SDS011;491;53.480;10.174;2023-08-20T10:27:31;4.30;;;1.40;;
1004;SDS011;491;53.480;10.174;2023-08-20T10:29:58;3.43;;;1.30;;
1004;SDS011;491;53.480;10.174;2023-08-20T10:32:43;3.53;;;1.43;;
1004;SDS011;491;53.480;10.174;2023-08-20T10:35:09;5.73;;;2.07;;
1004;SDS011;491;53.480;10.174;2023-08-20T10:37:34;3.13;;;1.73;;
1004;SDS011;491;53.480;10.174;2023-08-20T10:40:05;2.73;;;1.50;;
1004;SDS011;491;53.480;10.174;2023-08-20T10:42:31;3.13;;;1.40;;
1004;SDS011;491;53.480;10.174;2023-08-20T10:50:05;4.60;;;1.73;;
1004;SDS011;491;53.480;10.174;2023-08-20T10:52:33;4.67;;;1.43;;
1004;SDS011;491;53.480;10.174;2023-08-20T10:55:03;3.73;;;1.80;;
1004;SDS011;491;53.480;10.174;2023-08-20T10:57:36;5.00;;;1.90;;
1004;SDS011;491;53.480;10.174;2023-08-20T11:00:05;6.03;;;1.77;;
1004;SDS011;491;53.480;10.174;2023-08-20T11:02:35;2.80;;;1.90;;
1004;SDS011;491;53.480;10.174;2023-08-20T11:05:02;4.13;;;2.50;;
1004;SDS011;491;53.480;10.174;2023-08-20T11:07:29;4.03;;;1.87;;
1004;SDS011;491;53.480;10.174;2023-08-20T11:09:57;2.87;;;1.40;;
1004;SDS011;491;53.480;10.174;2023-08-20T11:12:23;4.20;;;1.53;;
1004;SDS011;491;53.480;10.174;2023-08-20T11:14:49;4.57;;;2.00;;
1004;SDS011;491;53.480;10.174;2023-08-20T11:17:15;2.17;;;1.27;;
1004;SDS011;491;53.480;10.174;2023-08-20T11:19:40;3.90;;;1.60;;
1004;SDS011;491;53.480;10.174;2023-08-20T11:22:07;2.37;;;1.03;;
1004;SDS011;491;53.480;10.174;2023-08-20T11:24:33;4.80;;;1.83;;
1004;SDS011;491;53.480;10.174;2023-08-20T11:27:03;3.80;;;1.43;;
1004;SDS011;491;53.480;10.174;2023-08-20T11:29:29;3.93;;;1.63;;
1004;SDS011;491;53.480;10.174;2023-08-20T11:31:56;3.93;;;2.17;;
1004;SDS011;491;53.480;10.174;2023-08-20T11:34:22;7.27;;;1.90;;
1004;SDS011;491;53.480;10.174;2023-08-20T11:36:48;3.50;;;1.53;;
1004;SDS011;491;53.480;10.174;2023-08-20T11:39:15;2.87;;;1.37;;
1004;SDS011;491;53.480;10.174;2023-08-20T11:41:41;5.23;;;2.20;;
1004;SDS011;491;53.480;10.174;2023-08-20T11:44:08;7.30;;;1.60;;
1004;SDS011;491;53.480;10.174;2023-08-20T11:46:34;5.63;;;1.87;;
1004;SDS011;491;53.480;10.174;2023-08-20T11:49:10;2.77;;;1.43;;
1004;SDS011;491;53.480;10.174;2023-08-20T11:51:48;1.63;;;0.80;;
1004;SDS011;491;53.480;10.174;2023-08-20T11:54:15;4.40;;;1.10;;
1004;SDS011;491;53.480;10.174;2023-08-20T11:56:48;4.13;;;1.80;;
1004;SDS011;491;53.480;10.174;2023-08-20T11:59:15;2.40;;;1.53;;
1004;SDS011;491;53.480;10.174;2023-08-20T12:01:41;6.63;;;2.03;;
1004;SDS011;491;53.480;10.174;2023-08-20T12:04:07;3.43;;;1.60;;
1004;SDS011;491;53.480;10.174;2023-08-20T12:06:34;2.70;;;1.63;;
1004;SDS011;491;53.480;10.174;2023-08-20T12:09:01;4.13;;;1.60;;
1004;SDS011;491;53.480;10.174;2023-08-20T12:11:29;4.27;;;1.53;;
1004;SDS011;491;53.480;10.174;2023-08-20T12:13:55;2.87;;;1.13;;
1004;SDS011;491;53.480;10.174;2023-08-20T12:16:21;5.37;;;1.43;;
1004;SDS011;491;53.480;10.174;2023-08-20T12:18:48;5.20;;;2.00;;
1004;SDS011;491;53.480;10.174;2023-08-20T12:21:15;3.37;;;1.20;;
1004;SDS011;491;53.480;10.174;2023-08-20T12:23:41;5.83;;;1.43;;
1004;SDS011;491;53.480;10.174;2023-08-20T12:26:07;2.27;;;0.80;;
1004;SDS011;491;53.480;10.174;2023-08-20T12:28:33;3.90;;;1.40;;
1004;SDS011;491;53.480;10.174;2023-08-20T12:30:59;4.00;;;1.80;;
1004;SDS011;491;53.480;10.174;2023-08-20T12:33:25;4.73;;;1.47;;
1004;SDS011;491;53.480;10.174;2023-08-20T12:35:55;4.10;;;1.47;;
1004;SDS011;491;53.480;10.174;2023-08-20T12:38:21;2.53;;;1.83;;
1004;SDS011;491;53.480;10.174;2023-08-20T12:40:47;5.13;;;2.00;;
1004;SDS011;491;53.480;10.174;2023-08-20T12:43:13;3.57;;;1.90;;
1004;SDS011;491;53.480;10.174;2023-08-20T12:45:39;9.83;;;2.17;;
1004;SDS011;491;53.480;10.174;2023-08-20T12:48:06;4.90;;;1.70;;
1004;SDS011;491;53.480;10.174;2023-08-20T12:50:34;5.80;;;1.80;;
1004;SDS011;491;53.480;10.174;2023-08-20T12:53:00;4.07;;;1.70;;
1004;SDS011;491;53.480;10.174;2023-08-20T12:55:26;4.07;;;1.60;;
1004;SDS011;491;53.480;10.174;2023-08-20T12:57:53;3.50;;;1.60;;
1004;SDS011;491;53.480;10.174;2023-08-20T13:00:20;4.63;;;2.10;;
1004;SDS011;491;53.480;10.174;2023-08-20T13:02:46;4.50;;;1.97;;
1004;SDS011;491;53.480;10.174;2023-08-20T13:05:12;7.03;;;1.97;;
1004;SDS011;491;53.480;10.174;2023-08-20T13:07:38;4.60;;;1.80;;
1004;SDS011;491;53.480;10.174;2023-08-20T13:10:04;3.70;;;1.53;;
1004;SDS011;491;53.480;10.174;2023-08-20T13:12:30;1.90;;;1.70;;
1004;SDS011;491;53.480;10.174;2023-08-20T13:14:57;3.57;;;1.60;;
1004;SDS011;491;53.480;10.174;2023-08-20T13:17:23;4.53;;;1.53;;
1004;SDS011;491;53.480;10.174;2023-08-20T13:19:50;5.10;;;1.43;;
1004;SDS011;491;53.480;10.174;2023-08-20T13:22:15;3.10;;;1.20;;
1004;SDS011;491;53.480;10.174;2023-08-20T13:24:42;4.23;;;1.60;;
1004;SDS011;491;53.480;10.174;2023-08-20T13:27:08;2.90;;;0.97;;
1004;SDS011;491;53.480;10.174;2023-08-20T13:29:37;2.50;;;1.07;;
1004;SDS011;491;53.480;10.174;2023-08-20T13:32:03;3.70;;;1.20;;
1004;SDS011;491;53.480;10.174;2023-08-20T13:34:29;2.20;;;0.93;;
1004;SDS011;491;53.480;10.174;2023-08-20T13:36:55;6.43;;;1.83;;
1004;SDS011;491;53.480;10.174;2023-08-20T13:39:21;4.03;;;1.37;;
1004;SDS011;491;53.480;10.174;2023-08-20T13:41:48;5.90;;;2.73;;
1004;SDS011;491;53.480;10.174;2023-08-20T13:44:14;4.20;;;1.77;;
1004;SDS011;491;53.480;10.174;2023-08-20T13:46:40;3.33;;;1.50;;
1004;SDS011;491;53.480;10.174;2023-08-20T13:49:06;4.00;;;1.50;;
1004;SDS011;491;53.480;10.174;2023-08-20T13:51:32;4.10;;;1.60;;
1004;SDS011;491;53.480;10.174;2023-08-20T13:53:58;6.80;;;1.70;;
1004;SDS011;491;53.480;10.174;2023-08-20T13:56:24;5.00;;;2.00;;
1004;SDS011;491;53.480;10.174;2023-08-20T13:58:51;6.17;;;2.10;;
1004;SDS011;491;53.480;10.174;2023-08-20T14:01:17;3.77;;;2.00;;
1004;SDS011;491;53.480;10.174;2023-08-20T14:03:43;3.17;;;1.70;;
1004;SDS011;491;53.480;10.174;2023-08-20T14:06:09;2.57;;;1.83;;
1004;SDS011;491;53.480;10.174;2023-08-20T14:08:34;5.57;;;2.27;;
1004;SDS011;491;53.480;10.174;2023-08-20T14:11:00;4.37;;;2.60;;
1004;SDS011;491;53.480;10.174;2023-08-20T14:13:26;3.97;;;1.40;;
1004;SDS011;491;53.480;10.174;2023-08-20T14:15:52;7.17;;;2.37;;
1004;SDS011;491;53.480;10.174;2023-08-20T14:18:18;5.07;;;2.27;;
1004;SDS011;491;53.480;10.174;2023-08-20T14:20:44;5.60;;;2.70;;
1004;SDS011;491;53.480;10.174;2023-08-20T14:23:10;6.53;;;2.60;;
1004;SDS011;491;53.480;10.174;2023-08-20T14:25:36;5.00;;;3.07;;
1004;SDS011;491;53.480;10.174;2023-08-20T14:28:05;5.27;;;2.57;;
1004;SDS011;491;53.480;10.174;2023-08-20T14:30:31;4.13;;;3.17;;
1004;SDS011;491;53.480;10.174;2023-08-20T14:32:57;3.80;;;2.23;;
1004;SDS011;491;53.480;10.174;2023-08-20T14:35:23;2.87;;;1.63;;
1004;SDS011;491;53.480;10.174;2023-08-20T14:37:49;2.50;;;1.90;;
1004;SDS011;491;53.480;10.174;2023-08-20T14:40:17;6.17;;;2.47;;
1004;SDS011;491;53.480;10.174;2023-08-20T14:42:43;5.13;;;2.20;;
1004;SDS011;491;53.480;10.174;2023-08-20T14:45:09;4.70;;;2.80;;
1004;SDS011;491;53.480;10.174;2023-08-20T14:47:35;6.83;;;3.10;;
1004;SDS011;491;53.480;10.174;2023-08-20T14:50:01;6.10;;;2.93;;
1004;SDS011;491;53.480;10.174;2023-08-20T14:52:27;9.30;;;3.47;;
1004;SDS011;491;53.480;10.174;2023-08-20T14:54:53;4.37;;;2.43;;
1004;SDS011;491;53.480;10.174;2023-08-20T14:57:19;4.10;;;1.70;;
1004;SDS011;491;53.480;10.174;2023-08-20T14:59:45;3.80;;;1.80;;
1004;SDS011;491;53.480;10.174;2023-08-20T15:02:11;4.80;;;2.70;;
1004;SDS011;491;53.480;10.174;2023-08-20T15:04:36;5.50;;;2.70;;
1004;SDS011;491;53.480;10.174;2023-08-20T15:07:08;2.90;;;2.40;;
1004;SDS011;491;53.480;10.174;2023-08-20T15:09:37;3.67;;;2.47;;
1004;SDS011;491;53.480;10.174;2023-08-20T15:12:03;3.10;;;2.23;;
1004;SDS011;491;53.480;10.174;2023-08-20T15:14:29;4.10;;;3.00;;
1004;SDS011;491;53.480;10.174;2023-08-20T15:16:55;4.03;;;2.30;;
1004;SDS011;491;53.480;10.174;2023-08-20T15:19:21;5.70;;;1.87;;